sensor_id;sensor_type;location;lat;lon;timestamp;P1;durP1;ratioP1;P2;durP2;ratioP2
12145;SDS011;6136;47.032;15.398;2022-08-03T00:00:48;3.70;;;3.25;;
12145;SDS011;6136;47.032;15.398;2022-08-03T00:03:16;3.58;;;3.28;;
12145;SDS011;6136;47.032;15.398;2022-08-03T00:05:44;3.60;;;3.30;;
12145;SDS011;6136;47.032;15.398;2022-08-03T00:08:29;3.70;;;3.30;;
12145;SDS011;6136;47.032;15.398;2022-08-03T00:10:59;4.05;;;3.70;;
12145;SDS011;6136;47.032;15.398;2022-08-03T00:13:27;4.90;;;3.53;;
12145;SDS011;6136;47.032;15.398;2022-08-03T00:15:55;5.07;;;4.03;;
12145;SDS011;6136;47.032;15.398;2022-08-03T00:18:23;3.63;;;3.10;;
12145;SDS011;6136;47.032;15.398;2022-08-03T00:20:52;3.77;;;3.47;;
12145;SDS011;6136;47.032;15.398;2022-08-03T00:23:20;3.45;;;2.97;;
12145;SDS011;6136;47.032;15.398;2022-08-03T00:25:48;3.20;;;3.00;;
12145;SDS011;6136;47.032;15.398;2022-08-03T00:28:17;3.92;;;3.63;;
12145;SDS011;6136;47.032;15.398;2022-08-03T00:30:45;3.33;;;3.03;;
12145;SDS011;6136;47.032;15.398;2022-08-03T00:33:14;4.13;;;3.67;;
12145;SDS011;6136;47.032;15.398;2022-08-03T00:35:42;3.90;;;3.53;;
12145;SDS011;6136;47.032;15.398;2022-08-03T00:38:16;3.80;;;3.40;;
12145;SDS011;6136;47.032;15.398;2022-08-03T00:40:44;5.63;;;4.07;;
12145;SDS011;6136;47.032;15.398;2022-08-03T00:43:12;3.60;;;3.30;;
12145;SDS011;6136;47.032;15.398;2022-08-03T00:45:42;3.67;;;3.38;;
12145;SDS011;6136;47.032;15.398;2022-08-03T00:48:11;3.60;;;3.30;;
12145;SDS011;6136;47.032;15.398;2022-08-03T00:50:55;4.33;;;4.00;;
12145;SDS011;6136;47.032;15.398;2022-08-03T00:53:23;4.27;;;3.47;;
12145;SDS011;6136;47.032;15.398;2022-08-03T00:55:52;3.80;;;3.50;;
12145;SDS011;6136;47.032;15.398;2022-08-03T00:58:20;3.77;;;3.40;;
12145;SDS011;6136;47.032;15.398;2022-08-03T01:00:51;5.30;;;3.53;;
12145;SDS011;6136;47.032;15.398;2022-08-03T01:03:19;4.23;;;3.47;;
12145;SDS011;6136;47.032;15.398;2022-08-03T01:05:48;5.00;;;3.23;;
12145;SDS011;6136;47.032;15.398;2022-08-03T01:08:22;4.20;;;3.80;;
12145;SDS011;6136;47.032;15.398;2022-08-03T01:11:01;3.13;;;2.93;;
12145;SDS011;6136;47.032;15.398;2022-08-03T01:13:36;4.63;;;3.40;;
12145;SDS011;6136;47.032;15.398;2022-08-03T01:16:29;3.53;;;3.23;;
12145;SDS011;6136;47.032;15.398;2022-08-03T01:19:05;4.13;;;3.73;;
12145;SDS011;6136;47.032;15.398;2022-08-03T01:21:48;3.70;;;3.40;;
12145;SDS011;6136;47.032;15.398;2022-08-03T01:24:30;3.87;;;3.37;;
12145;SDS011;6136;47.032;15.398;2022-08-03T01:27:13;4.70;;;3.70;;
12145;SDS011;6136;47.032;15.398;2022-08-03T01:30:00;4.13;;;3.70;;
12145;SDS011;6136;47.032;15.398;2022-08-03T01:32:36;3.33;;;3.07;;
12145;SDS011;6136;47.032;15.398;2022-08-03T01:35:25;3.30;;;3.00;;
12145;SDS011;6136;47.032;15.398;2022-08-03T01:37:56;4.10;;;3.70;;
12145;SDS011;6136;47.032;15.398;2022-08-03T01:40:27;4.37;;;3.50;;
12145;SDS011;6136;47.032;15.398;2022-08-03T01:42:59;4.73;;;3.40;;
12145;SDS011;6136;47.032;15.398;2022-08-03T01:45:31;4.13;;;3.73;;
12145;SDS011;6136;47.032;15.398;2022-08-03T01:48:02;4.73;;;3.23;;
12145;SDS011;6136;47.032;15.398;2022-08-03T01:50:31;3.57;;;3.27;;
12145;SDS011;6136;47.032;15.398;2022-08-03T01:53:01;3.70;;;3.40;;
12145;SDS011;6136;47.032;15.398;2022-08-03T01:55:30;4.33;;;3.93;;
12145;SDS011;6136;47.032;15.398;2022-08-03T01:58:01;3.80;;;3.50;;
12145;SDS011;6136;47.032;15.398;2022-08-03T02:00:35;5.07;;;3.50;;
12145;SDS011;6136;47.032;15.398;2022-08-03T02:03:05;3.97;;;3.63;;
12145;SDS011;6136;47.032;15.398;2022-08-03T02:05:35;4.00;;;3.50;;
12145;SDS011;6136;47.032;15.398;2022-08-03T02:08:06;3.87;;;3.57;;
12145;SDS011;6136;47.032;15.398;2022-08-03T02:10:37;5.13;;;3.70;;
12145;SDS011;6136;47.032;15.398;2022-08-03T02:13:08;4.00;;;3.60;;
12145;SDS011;6136;47.032;15.398;2022-08-03T02:15:39;3.87;;;3.57;;
12145;SDS011;6136;47.032;15.398;2022-08-03T02:18:09;3.50;;;3.20;;
12145;SDS011;6136;47.032;15.398;2022-08-03T02:20:38;4.00;;;3.33;;
12145;SDS011;6136;47.032;15.398;2022-08-03T02:23:09;3.70;;;3.40;;
12145;SDS011;6136;47.032;15.398;2022-08-03T02:25:40;4.33;;;3.70;;
12145;SDS011;6136;47.032;15.398;2022-08-03T02:28:15;3.60;;;3.30;;
12145;SDS011;6136;47.032;15.398;2022-08-03T02:30:49;4.27;;;3.60;;
12145;SDS011;6136;47.032;15.398;2022-08-03T02:33:22;3.83;;;3.53;;
12145;SDS011;6136;47.032;15.398;2022-08-03T02:35:53;4.17;;;3.77;;
12145;SDS011;6136;47.032;15.398;2022-08-03T02:38:25;3.90;;;3.60;;
12145;SDS011;6136;47.032;15.398;2022-08-03T02:41:00;4.13;;;3.80;;
12145;SDS011;6136;47.032;15.398;2022-08-03T02:43:33;3.80;;;3.50;;
12145;SDS011;6136;47.032;15.398;2022-08-03T02:46:27;4.10;;;3.43;;
12145;SDS011;6136;47.032;15.398;2022-08-03T02:48:59;4.17;;;3.67;;
12145;SDS011;6136;47.032;15.398;2022-08-03T02:51:49;4.20;;;3.80;;
12145;SDS011;6136;47.032;15.398;2022-08-03T02:54:20;5.93;;;4.03;;
12145;SDS011;6136;47.032;15.398;2022-08-03T02:56:51;4.57;;;4.13;;
12145;SDS011;6136;47.032;15.398;2022-08-03T02:59:21;4.23;;;3.70;;
12145;SDS011;6136;47.032;15.398;2022-08-03T03:01:51;7.30;;;3.57;;
12145;SDS011;6136;47.032;15.398;2022-08-03T03:04:21;3.60;;;3.30;;
12145;SDS011;6136;47.032;15.398;2022-08-03T03:06:58;3.63;;;3.33;;
12145;SDS011;6136;47.032;15.398;2022-08-03T03:09:30;4.43;;;3.57;;
12145;SDS011;6136;47.032;15.398;2022-08-03T03:12:07;4.20;;;3.40;;
12145;SDS011;6136;47.032;15.398;2022-08-03T03:14:38;4.23;;;3.93;;
12145;SDS011;6136;47.032;15.398;2022-08-03T03:17:09;4.73;;;3.87;;
12145;SDS011;6136;47.032;15.398;2022-08-03T03:19:38;4.57;;;3.27;;
12145;SDS011;6136;47.032;15.398;2022-08-03T03:22:08;3.60;;;3.30;;
12145;SDS011;6136;47.032;15.398;2022-08-03T03:24:37;3.83;;;3.43;;
12145;SDS011;6136;47.032;15.398;2022-08-03T03:27:08;4.07;;;3.67;;
12145;SDS011;6136;47.032;15.398;2022-08-03T03:29:36;4.20;;;3.80;;
12145;SDS011;6136;47.032;15.398;2022-08-03T03:32:05;4.03;;;3.63;;
12145;SDS011;6136;47.032;15.398;2022-08-03T03:34:36;4.67;;;3.90;;
12145;SDS011;6136;47.032;15.398;2022-08-03T03:37:04;7.17;;;5.27;;
12145;SDS011;6136;47.032;15.398;2022-08-03T03:39:32;6.73;;;5.97;;
12145;SDS011;6136;47.032;15.398;2022-08-03T03:42:02;7.80;;;5.77;;
12145;SDS011;6136;47.032;15.398;2022-08-03T03:44:31;8.00;;;4.80;;
12145;SDS011;6136;47.032;15.398;2022-08-03T03:46:59;6.90;;;4.40;;
12145;SDS011;6136;47.032;15.398;2022-08-03T03:49:27;8.97;;;3.90;;
12145;SDS011;6136;47.032;15.398;2022-08-03T03:51:57;4.10;;;3.70;;
12145;SDS011;6136;47.032;15.398;2022-08-03T03:54:25;4.73;;;3.70;;
12145;SDS011;6136;47.032;15.398;2022-08-03T03:56:54;3.33;;;3.03;;
12145;SDS011;6136;47.032;15.398;2022-08-03T03:59:23;4.80;;;3.67;;
12145;SDS011;6136;47.032;15.398;2022-08-03T04:01:51;4.50;;;3.70;;
12145;SDS011;6136;47.032;15.398;2022-08-03T04:04:24;4.17;;;3.77;;
12145;SDS011;6136;47.032;15.398;2022-08-03T04:07:11;4.97;;;3.50;;
12145;SDS011;6136;47.032;15.398;2022-08-03T04:09:56;3.77;;;3.33;;
12145;SDS011;6136;47.032;15.398;2022-08-03T04:12:42;4.47;;;3.73;;
12145;SDS011;6136;47.032;15.398;2022-08-03T04:15:15;3.93;;;3.40;;
12145;SDS011;6136;47.032;15.398;2022-08-03T04:17:47;3.90;;;3.50;;
12145;SDS011;6136;47.032;15.398;2022-08-03T04:20:17;4.13;;;3.70;;
12145;SDS011;6136;47.032;15.398;2022-08-03T04:22:49;5.93;;;5.00;;
12145;SDS011;6136;47.032;15.398;2022-08-03T04:25:19;6.80;;;4.80;;
12145;SDS011;6136;47.032;15.398;2022-08-03T04:27:50;5.87;;;4.30;;
12145;SDS011;6136;47.032;15.398;2022-08-03T04:30:40;4.80;;;4.40;;
12145;SDS011;6136;47.032;15.398;2022-08-03T04:33:14;5.30;;;4.30;;
12145;SDS011;6136;47.032;15.398;2022-08-03T04:35:44;7.23;;;4.63;;
12145;SDS011;6136;47.032;15.398;2022-08-03T04:38:21;6.13;;;5.17;;
12145;SDS011;6136;47.032;15.398;2022-08-03T04:40:52;4.87;;;4.43;;
12145;SDS011;6136;47.032;15.398;2022-08-03T04:43:21;5.80;;;4.90;;
12145;SDS011;6136;47.032;15.398;2022-08-03T04:45:49;4.50;;;3.70;;
12145;SDS011;6136;47.032;15.398;2022-08-03T04:48:18;5.50;;;4.43;;
12145;SDS011;6136;47.032;15.398;2022-08-03T04:50:47;5.77;;;4.37;;
12145;SDS011;6136;47.032;15.398;2022-08-03T04:53:15;4.70;;;4.13;;
12145;SDS011;6136;47.032;15.398;2022-08-03T04:55:46;4.43;;;4.03;;
12145;SDS011;6136;47.032;15.398;2022-08-03T04:58:14;7.83;;;4.77;;
12145;SDS011;6136;47.032;15.398;2022-08-03T05:00:42;5.50;;;4.87;;
12145;SDS011;6136;47.032;15.398;2022-08-03T05:03:11;5.10;;;4.60;;
12145;SDS011;6136;47.032;15.398;2022-08-03T05:05:50;4.30;;;3.90;;
12145;SDS011;6136;47.032;15.398;2022-08-03T05:08:18;5.03;;;4.57;;
12145;SDS011;6136;47.032;15.398;2022-08-03T05:10:55;5.10;;;4.40;;
12145;SDS011;6136;47.032;15.398;2022-08-03T05:13:24;5.57;;;4.20;;
12145;SDS011;6136;47.032;15.398;2022-08-03T05:15:52;6.40;;;4.37;;
12145;SDS011;6136;47.032;15.398;2022-08-03T05:18:20;5.35;;;4.43;;
12145;SDS011;6136;47.032;15.398;2022-08-03T05:20:48;5.68;;;4.78;;
12145;SDS011;6136;47.032;15.398;2022-08-03T05:23:16;7.72;;;5.15;;
12145;SDS011;6136;47.032;15.398;2022-08-03T05:25:45;5.00;;;4.50;;
12145;SDS011;6136;47.032;15.398;2022-08-03T05:28:17;8.98;;;5.43;;
12145;SDS011;6136;47.032;15.398;2022-08-03T05:30:45;6.30;;;5.40;;
12145;SDS011;6136;47.032;15.398;2022-08-03T05:33:13;8.88;;;5.47;;
12145;SDS011;6136;47.032;15.398;2022-08-03T05:35:41;6.50;;;4.78;;
12145;SDS011;6136;47.032;15.398;2022-08-03T05:38:23;6.45;;;4.55;;
12145;SDS011;6136;47.032;15.398;2022-08-03T05:40:59;6.38;;;4.63;;
12145;SDS011;6136;47.032;15.398;2022-08-03T05:43:49;6.10;;;5.50;;
12145;SDS011;6136;47.032;15.398;2022-08-03T05:46:17;9.75;;;5.43;;
12145;SDS011;6136;47.032;15.398;2022-08-03T05:48:46;5.60;;;5.10;;
12145;SDS011;6136;47.032;15.398;2022-08-03T05:51:14;8.48;;;4.93;;
12145;SDS011;6136;47.032;15.398;2022-08-03T05:53:42;5.95;;;5.15;;
12145;SDS011;6136;47.032;15.398;2022-08-03T05:56:11;4.78;;;4.38;;
12145;SDS011;6136;47.032;15.398;2022-08-03T05:58:42;5.25;;;4.43;;
12145;SDS011;6136;47.032;15.398;2022-08-03T06:01:12;4.72;;;4.28;;
12145;SDS011;6136;47.032;15.398;2022-08-03T06:03:41;7.82;;;4.95;;
12145;SDS011;6136;47.032;15.398;2022-08-03T06:06:09;6.35;;;4.80;;
12145;SDS011;6136;47.032;15.398;2022-08-03T06:08:37;8.48;;;5.03;;
12145;SDS011;6136;47.032;15.398;2022-08-03T06:11:06;6.53;;;5.25;;
12145;SDS011;6136;47.032;15.398;2022-08-03T06:13:34;13.55;;;5.15;;
12145;SDS011;6136;47.032;15.398;2022-08-03T06:16:03;10.20;;;4.75;;
12145;SDS011;6136;47.032;15.398;2022-08-03T06:18:33;5.13;;;4.18;;
12145;SDS011;6136;47.032;15.398;2022-08-03T06:21:02;5.97;;;4.35;;
12145;SDS011;6136;47.032;15.398;2022-08-03T06:23:40;6.72;;;4.70;;
12145;SDS011;6136;47.032;15.398;2022-08-03T06:26:19;4.85;;;4.30;;
12145;SDS011;6136;47.032;15.398;2022-08-03T06:28:47;4.75;;;4.25;;
12145;SDS011;6136;47.032;15.398;2022-08-03T06:31:18;4.80;;;4.40;;
12145;SDS011;6136;47.032;15.398;2022-08-03T06:33:49;4.05;;;3.72;;
12145;SDS011;6136;47.032;15.398;2022-08-03T06:36:38;6.28;;;4.63;;
12145;SDS011;6136;47.032;15.398;2022-08-03T06:39:06;5.45;;;4.40;;
12145;SDS011;6136;47.032;15.398;2022-08-03T06:41:34;6.50;;;4.47;;
12145;SDS011;6136;47.032;15.398;2022-08-03T06:44:06;5.53;;;4.20;;
12145;SDS011;6136;47.032;15.398;2022-08-03T06:46:35;6.80;;;4.22;;
12145;SDS011;6136;47.032;15.398;2022-08-03T06:49:05;4.32;;;3.90;;
12145;SDS011;6136;47.032;15.398;2022-08-03T06:51:33;5.47;;;3.90;;
12145;SDS011;6136;47.032;15.398;2022-08-03T06:54:22;5.45;;;3.88;;
12145;SDS011;6136;47.032;15.398;2022-08-03T06:56:51;3.92;;;3.55;;
12145;SDS011;6136;47.032;15.398;2022-08-03T06:59:19;6.25;;;3.70;;
12145;SDS011;6136;47.032;15.398;2022-08-03T07:02:07;5.93;;;4.13;;
12145;SDS011;6136;47.032;15.398;2022-08-03T07:04:37;4.05;;;3.75;;
12145;SDS011;6136;47.032;15.398;2022-08-03T07:07:05;5.90;;;3.90;;
12145;SDS011;6136;47.032;15.398;2022-08-03T07:09:33;5.22;;;3.63;;
12145;SDS011;6136;47.032;15.398;2022-08-03T07:12:02;4.40;;;3.97;;
12145;SDS011;6136;47.032;15.398;2022-08-03T07:14:32;3.95;;;3.60;;
12145;SDS011;6136;47.032;15.398;2022-08-03T07:17:00;5.38;;;3.20;;
12145;SDS011;6136;47.032;15.398;2022-08-03T07:19:38;3.95;;;3.10;;
12145;SDS011;6136;47.032;15.398;2022-08-03T07:22:06;4.38;;;3.15;;
12145;SDS011;6136;47.032;15.398;2022-08-03T07:24:34;3.58;;;3.13;;
12145;SDS011;6136;47.032;15.398;2022-08-03T07:27:03;2.97;;;2.78;;
12145;SDS011;6136;47.032;15.398;2022-08-03T07:29:31;3.60;;;3.08;;
12145;SDS011;6136;47.032;15.398;2022-08-03T07:32:00;3.72;;;3.42;;
12145;SDS011;6136;47.032;15.398;2022-08-03T07:34:29;5.05;;;3.20;;
12145;SDS011;6136;47.032;15.398;2022-08-03T07:36:58;4.10;;;3.03;;
12145;SDS011;6136;47.032;15.398;2022-08-03T07:39:27;3.63;;;3.33;;
12145;SDS011;6136;47.032;15.398;2022-08-03T07:41:55;5.32;;;3.28;;
12145;SDS011;6136;47.032;15.398;2022-08-03T07:44:23;3.40;;;3.08;;
12145;SDS011;6136;47.032;15.398;2022-08-03T07:46:51;5.88;;;3.22;;
12145;SDS011;6136;47.032;15.398;2022-08-03T07:49:20;3.60;;;3.30;;
12145;SDS011;6136;47.032;15.398;2022-08-03T07:51:48;5.18;;;3.17;;
12145;SDS011;6136;47.032;15.398;2022-08-03T07:54:38;3.60;;;3.30;;
12145;SDS011;6136;47.032;15.398;2022-08-03T07:57:06;5.15;;;3.00;;
12145;SDS011;6136;47.032;15.398;2022-08-03T07:59:34;4.18;;;3.45;;
12145;SDS011;6136;47.032;15.398;2022-08-03T08:02:22;3.50;;;3.15;;
12145;SDS011;6136;47.032;15.398;2022-08-03T08:04:51;3.10;;;2.80;;
12145;SDS011;6136;47.032;15.398;2022-08-03T08:07:19;3.45;;;2.72;;
12145;SDS011;6136;47.032;15.398;2022-08-03T08:09:49;3.38;;;3.08;;
12145;SDS011;6136;47.032;15.398;2022-08-03T08:12:17;3.72;;;2.83;;
12145;SDS011;6136;47.032;15.398;2022-08-03T08:14:45;3.30;;;3.00;;
12145;SDS011;6136;47.032;15.398;2022-08-03T08:17:13;3.00;;;2.80;;
12145;SDS011;6136;47.032;15.398;2022-08-03T08:19:41;4.85;;;2.70;;
12145;SDS011;6136;47.032;15.398;2022-08-03T08:22:16;3.30;;;3.00;;
12145;SDS011;6136;47.032;15.398;2022-08-03T08:24:57;2.97;;;2.60;;
12145;SDS011;6136;47.032;15.398;2022-08-03T08:27:26;3.30;;;3.00;;
12145;SDS011;6136;47.032;15.398;2022-08-03T08:30:15;4.20;;;3.00;;
12145;SDS011;6136;47.032;15.398;2022-08-03T08:32:45;3.03;;;2.53;;
12145;SDS011;6136;47.032;15.398;2022-08-03T08:35:13;2.75;;;2.55;;
12145;SDS011;6136;47.032;15.398;2022-08-03T08:37:42;2.95;;;2.42;;
12145;SDS011;6136;47.032;15.398;2022-08-03T08:40:18;3.25;;;2.90;;
12145;SDS011;6136;47.032;15.398;2022-08-03T08:42:48;5.28;;;3.00;;
12145;SDS011;6136;47.032;15.398;2022-08-03T08:45:24;5.80;;;2.90;;
12145;SDS011;6136;47.032;15.398;2022-08-03T08:47:52;2.80;;;2.50;;
12145;SDS011;6136;47.032;15.398;2022-08-03T08:50:26;3.15;;;2.20;;
12145;SDS011;6136;47.032;15.398;2022-08-03T08:52:55;3.50;;;2.58;;
12145;SDS011;6136;47.032;15.398;2022-08-03T08:55:28;3.05;;;2.38;;
12145;SDS011;6136;47.032;15.398;2022-08-03T08:58:18;2.70;;;2.50;;
12145;SDS011;6136;47.032;15.398;2022-08-03T09:00:48;2.75;;;2.55;;
12145;SDS011;6136;47.032;15.398;2022-08-03T09:03:17;3.05;;;2.85;;
12145;SDS011;6136;47.032;15.398;2022-08-03T09:05:50;2.92;;;2.60;;
12145;SDS011;6136;47.032;15.398;2022-08-03T09:08:21;3.80;;;2.30;;
12145;SDS011;6136;47.032;15.398;2022-08-03T09:10:51;4.00;;;2.67;;
12145;SDS011;6136;47.032;15.398;2022-08-03T09:13:19;2.70;;;2.20;;
12145;SDS011;6136;47.032;15.398;2022-08-03T09:16:09;2.78;;;2.47;;
12145;SDS011;6136;47.032;15.398;2022-08-03T09:18:39;3.10;;;2.35;;
12145;SDS011;6136;47.032;15.398;2022-08-03T09:21:12;2.97;;;2.35;;
12145;SDS011;6136;47.032;15.398;2022-08-03T09:23:57;4.18;;;2.85;;
12145;SDS011;6136;47.032;15.398;2022-08-03T09:26:31;2.78;;;2.58;;
12145;SDS011;6136;47.032;15.398;2022-08-03T09:29:00;2.67;;;2.45;;
12145;SDS011;6136;47.032;15.398;2022-08-03T09:31:37;5.93;;;2.40;;
12145;SDS011;6136;47.032;15.398;2022-08-03T09:34:09;3.22;;;2.40;;
12145;SDS011;6136;47.032;15.398;2022-08-03T09:36:39;2.70;;;2.47;;
12145;SDS011;6136;47.032;15.398;2022-08-03T09:39:09;4.18;;;2.35;;
12145;SDS011;6136;47.032;15.398;2022-08-03T09:41:46;2.63;;;2.42;;
12145;SDS011;6136;47.032;15.398;2022-08-03T09:44:16;2.42;;;2.30;;
12145;SDS011;6136;47.032;15.398;2022-08-03T09:46:51;2.53;;;2.33;;
12145;SDS011;6136;47.032;15.398;2022-08-03T09:49:20;2.35;;;2.20;;
12145;SDS011;6136;47.032;15.398;2022-08-03T09:51:50;5.47;;;2.00;;
12145;SDS011;6136;47.032;15.398;2022-08-03T09:54:38;2.58;;;2.45;;
12145;SDS011;6136;47.032;15.398;2022-08-03T09:57:08;3.45;;;2.40;;
12145;SDS011;6136;47.032;15.398;2022-08-03T09:59:47;2.17;;;2.05;;
12145;SDS011;6136;47.032;15.398;2022-08-03T10:02:19;2.03;;;1.92;;
12145;SDS011;6136;47.032;15.398;2022-08-03T10:04:49;1.88;;;1.77;;
12145;SDS011;6136;47.032;15.398;2022-08-03T10:07:18;2.03;;;1.92;;
12145;SDS011;6136;47.032;15.398;2022-08-03T10:09:55;2.10;;;1.90;;
12145;SDS011;6136;47.032;15.398;2022-08-03T10:12:46;1.65;;;1.55;;
12145;SDS011;6136;47.032;15.398;2022-08-03T10:15:14;1.92;;;1.83;;
12145;SDS011;6136;47.032;15.398;2022-08-03T10:18:03;1.98;;;1.85;;
12145;SDS011;6136;47.032;15.398;2022-08-03T10:20:32;1.95;;;1.85;;
12145;SDS011;6136;47.032;15.398;2022-08-03T10:23:04;2.00;;;1.80;;
12145;SDS011;6136;47.032;15.398;2022-08-03T10:25:34;2.55;;;2.20;;
12145;SDS011;6136;47.032;15.398;2022-08-03T10:28:08;2.30;;;2.10;;
12145;SDS011;6136;47.032;15.398;2022-08-03T10:30:42;2.00;;;1.90;;
12145;SDS011;6136;47.032;15.398;2022-08-03T10:33:16;2.20;;;2.00;;
12145;SDS011;6136;47.032;15.398;2022-08-03T10:36:06;2.65;;;2.45;;
12145;SDS011;6136;47.032;15.398;2022-08-03T10:38:36;2.15;;;2.05;;
12145;SDS011;6136;47.032;15.398;2022-08-03T10:41:11;2.58;;;2.38;;
12145;SDS011;6136;47.032;15.398;2022-08-03T10:43:45;3.75;;;2.40;;
12145;SDS011;6136;47.032;15.398;2022-08-03T10:46:17;2.50;;;2.20;;
12145;SDS011;6136;47.032;15.398;2022-08-03T10:48:46;1.83;;;1.73;;
12145;SDS011;6136;47.032;15.398;2022-08-03T10:51:18;1.70;;;1.60;;
12145;SDS011;6136;47.032;15.398;2022-08-03T10:53:47;1.98;;;1.88;;
12145;SDS011;6136;47.032;15.398;2022-08-03T10:56:39;1.88;;;1.77;;
12145;SDS011;6136;47.032;15.398;2022-08-03T11:05:29;1.95;;;1.85;;
12145;SDS011;6136;47.032;15.398;2022-08-03T11:08:21;1.63;;;1.52;;
12145;SDS011;6136;47.032;15.398;2022-08-03T11:10:51;1.80;;;1.70;;
12145;SDS011;6136;47.032;15.398;2022-08-03T11:13:21;1.83;;;1.73;;
12145;SDS011;6136;47.032;15.398;2022-08-03T11:15:52;6.00;;;1.80;;
12145;SDS011;6136;47.032;15.398;2022-08-03T11:18:27;3.03;;;1.90;;
12145;SDS011;6136;47.032;15.398;2022-08-03T11:20:56;1.90;;;1.80;;
12145;SDS011;6136;47.032;15.398;2022-08-03T11:23:42;2.30;;;2.10;;
12145;SDS011;6136;47.032;15.398;2022-08-03T11:26:31;1.80;;;1.65;;
12145;SDS011;6136;47.032;15.398;2022-08-03T11:31:56;1.58;;;1.50;;
12145;SDS011;6136;47.032;15.398;2022-08-03T11:34:25;2.10;;;2.00;;
12145;SDS011;6136;47.032;15.398;2022-08-03T11:39:55;2.95;;;2.00;;
12145;SDS011;6136;47.032;15.398;2022-08-03T11:45:13;2.00;;;1.90;;
12145;SDS011;6136;47.032;15.398;2022-08-03T11:47:43;3.63;;;2.20;;
12145;SDS011;6136;47.032;15.398;2022-08-03T11:50:15;2.15;;;2.03;;
12145;SDS011;6136;47.032;15.398;2022-08-03T11:52:44;1.80;;;1.70;;
12145;SDS011;6136;47.032;15.398;2022-08-03T11:55:13;1.70;;;1.60;;
12145;SDS011;6136;47.032;15.398;2022-08-03T11:57:44;2.03;;;1.92;;
12145;SDS011;6136;47.032;15.398;2022-08-03T12:00:33;2.13;;;2.00;;
12145;SDS011;6136;47.032;15.398;2022-08-03T12:03:04;1.75;;;1.65;;
12145;SDS011;6136;47.032;15.398;2022-08-03T12:05:38;1.50;;;1.40;;
12145;SDS011;6136;47.032;15.398;2022-08-03T12:08:17;2.83;;;1.85;;
12145;SDS011;6136;47.032;15.398;2022-08-03T12:10:57;1.83;;;1.73;;
12145;SDS011;6136;47.032;15.398;2022-08-03T12:13:34;1.70;;;1.60;;
12145;SDS011;6136;47.032;15.398;2022-08-03T12:16:24;1.70;;;1.60;;
12145;SDS011;6136;47.032;15.398;2022-08-03T12:18:56;1.60;;;1.50;;
12145;SDS011;6136;47.032;15.398;2022-08-03T12:21:26;2.47;;;1.80;;
12145;SDS011;6136;47.032;15.398;2022-08-03T12:23:55;1.90;;;1.80;;
12145;SDS011;6136;47.032;15.398;2022-08-03T12:26:26;2.05;;;1.95;;
12145;SDS011;6136;47.032;15.398;2022-08-03T12:28:55;4.15;;;1.98;;
12145;SDS011;6136;47.032;15.398;2022-08-03T12:31:23;2.17;;;1.95;;
12145;SDS011;6136;47.032;15.398;2022-08-03T12:33:57;2.53;;;1.60;;
12145;SDS011;6136;47.032;15.398;2022-08-03T12:36:28;3.55;;;1.90;;
12145;SDS011;6136;47.032;15.398;2022-08-03T12:38:59;2.05;;;1.85;;
12145;SDS011;6136;47.032;15.398;2022-08-03T12:41:29;3.28;;;2.10;;
12145;SDS011;6136;47.032;15.398;2022-08-03T12:43:59;2.20;;;2.00;;
12145;SDS011;6136;47.032;15.398;2022-08-03T12:46:29;1.90;;;1.80;;
12145;SDS011;6136;47.032;15.398;2022-08-03T12:49:02;2.10;;;1.80;;
12145;SDS011;6136;47.032;15.398;2022-08-03T12:51:33;3.53;;;1.88;;
12145;SDS011;6136;47.032;15.398;2022-08-03T12:54:03;1.92;;;1.80;;
12145;SDS011;6136;47.032;15.398;2022-08-03T12:56:32;2.60;;;1.88;;
12145;SDS011;6136;47.032;15.398;2022-08-03T12:59:00;5.03;;;1.83;;
12145;SDS011;6136;47.032;15.398;2022-08-03T13:01:48;1.80;;;1.70;;
12145;SDS011;6136;47.032;15.398;2022-08-03T13:04:26;2.10;;;1.90;;
12145;SDS011;6136;47.032;15.398;2022-08-03T13:06:55;1.90;;;1.80;;
12145;SDS011;6136;47.032;15.398;2022-08-03T13:09:28;1.83;;;1.73;;
12145;SDS011;6136;47.032;15.398;2022-08-03T13:12:04;4.90;;;1.80;;
12145;SDS011;6136;47.032;15.398;2022-08-03T13:14:34;1.88;;;1.77;;
12145;SDS011;6136;47.032;15.398;2022-08-03T13:17:03;1.80;;;1.70;;
12145;SDS011;6136;47.032;15.398;2022-08-03T13:19:34;1.80;;;1.70;;
12145;SDS011;6136;47.032;15.398;2022-08-03T13:22:09;2.15;;;1.70;;
12145;SDS011;6136;47.032;15.398;2022-08-03T13:24:39;2.10;;;1.90;;
12145;SDS011;6136;47.032;15.398;2022-08-03T13:27:07;2.28;;;1.95;;
12145;SDS011;6136;47.032;15.398;2022-08-03T13:29:55;1.77;;;1.67;;
12145;SDS011;6136;47.032;15.398;2022-08-03T13:32:24;1.67;;;1.58;;
12145;SDS011;6136;47.032;15.398;2022-08-03T13:34:54;2.45;;;2.17;;
12145;SDS011;6136;47.032;15.398;2022-08-03T13:37:22;2.30;;;1.67;;
12145;SDS011;6136;47.032;15.398;2022-08-03T13:39:51;1.90;;;1.80;;
12145;SDS011;6136;47.032;15.398;2022-08-03T13:42:25;1.73;;;1.63;;
12145;SDS011;6136;47.032;15.398;2022-08-03T13:44:54;1.80;;;1.70;;
12145;SDS011;6136;47.032;15.398;2022-08-03T13:47:22;1.95;;;1.77;;
12145;SDS011;6136;47.032;15.398;2022-08-03T13:49:50;2.05;;;1.88;;
12145;SDS011;6136;47.032;15.398;2022-08-03T13:52:27;1.88;;;1.77;;
12145;SDS011;6136;47.032;15.398;2022-08-03T13:54:56;1.80;;;1.70;;
12145;SDS011;6136;47.032;15.398;2022-08-03T13:57:25;1.63;;;1.52;;
12145;SDS011;6136;47.032;15.398;2022-08-03T14:00:14;5.05;;;1.90;;
12145;SDS011;6136;47.032;15.398;2022-08-03T14:02:52;2.33;;;1.70;;
12145;SDS011;6136;47.032;15.398;2022-08-03T14:05:27;1.80;;;1.70;;
12145;SDS011;6136;47.032;15.398;2022-08-03T14:07:58;2.08;;;1.88;;
12145;SDS011;6136;47.032;15.398;2022-08-03T14:10:30;2.22;;;2.03;;
12145;SDS011;6136;47.032;15.398;2022-08-03T14:12:58;2.25;;;2.13;;
12145;SDS011;6136;47.032;15.398;2022-08-03T14:15:27;2.13;;;1.90;;
12145;SDS011;6136;47.032;15.398;2022-08-03T14:17:55;3.08;;;2.03;;
12145;SDS011;6136;47.032;15.398;2022-08-03T14:20:24;2.20;;;2.00;;
12145;SDS011;6136;47.032;15.398;2022-08-03T14:23:05;2.40;;;1.95;;
12145;SDS011;6136;47.032;15.398;2022-08-03T14:25:34;1.83;;;1.73;;
12145;SDS011;6136;47.032;15.398;2022-08-03T14:28:10;2.55;;;1.70;;
12145;SDS011;6136;47.032;15.398;2022-08-03T14:30:38;2.25;;;2.05;;
12145;SDS011;6136;47.032;15.398;2022-08-03T14:33:07;2.17;;;1.92;;
12145;SDS011;6136;47.032;15.398;2022-08-03T14:35:35;2.38;;;2.17;;
12145;SDS011;6136;47.032;15.398;2022-08-03T14:38:03;2.20;;;2.03;;
12145;SDS011;6136;47.032;15.398;2022-08-03T14:40:33;1.98;;;1.88;;
12145;SDS011;6136;47.032;15.398;2022-08-03T14:43:02;2.00;;;1.90;;
12145;SDS011;6136;47.032;15.398;2022-08-03T14:45:30;1.95;;;1.85;;
12145;SDS011;6136;47.032;15.398;2022-08-03T14:48:00;2.75;;;2.28;;
12145;SDS011;6136;47.032;15.398;2022-08-03T14:50:49;1.88;;;1.77;;
12145;SDS011;6136;47.032;15.398;2022-08-03T14:53:20;2.53;;;1.83;;
12145;SDS011;6136;47.032;15.398;2022-08-03T14:55:50;2.00;;;1.77;;
12145;SDS011;6136;47.032;15.398;2022-08-03T14:58:19;1.98;;;1.88;;
12145;SDS011;6136;47.032;15.398;2022-08-03T15:00:48;2.08;;;1.90;;
12145;SDS011;6136;47.032;15.398;2022-08-03T15:03:18;2.25;;;2.05;;
12145;SDS011;6136;47.032;15.398;2022-08-03T15:05:49;2.85;;;1.65;;
12145;SDS011;6136;47.032;15.398;2022-08-03T15:08:18;3.00;;;2.10;;
12145;SDS011;6136;47.032;15.398;2022-08-03T15:10:47;1.80;;;1.70;;
12145;SDS011;6136;47.032;15.398;2022-08-03T15:13:17;4.85;;;1.95;;
12145;SDS011;6136;47.032;15.398;2022-08-03T15:15:48;2.28;;;2.00;;
12145;SDS011;6136;47.032;15.398;2022-08-03T15:18:17;3.08;;;2.08;;
12145;SDS011;6136;47.032;15.398;2022-08-03T15:20:46;2.00;;;1.80;;
12145;SDS011;6136;47.032;15.398;2022-08-03T15:23:16;2.20;;;2.00;;
12145;SDS011;6136;47.032;15.398;2022-08-03T15:25:45;2.33;;;1.80;;
12145;SDS011;6136;47.032;15.398;2022-08-03T15:28:35;1.80;;;1.67;;
12145;SDS011;6136;47.032;15.398;2022-08-03T15:31:03;1.80;;;1.70;;
12145;SDS011;6136;47.032;15.398;2022-08-03T15:33:33;1.70;;;1.60;;